sensor_id;sensor_type;location;lat;lon;timestamp;temperature;humidity
4651;DHT22;2338;49.602;8.722;2023-03-14T00:01:54;11.60;99.90
4651;DHT22;2338;49.602;8.722;2023-03-14T00:04:39;11.60;99.90
4651;DHT22;2338;49.602;8.722;2023-03-14T00:07:25;11.60;99.90
4651;DHT22;2338;49.602;8.722;2023-03-14T00:10:12;11.50;99.90
4651;DHT22;2338;49.602;8.722;2023-03-14T00:12:59;11.60;99.90
4651;DHT22;2338;49.602;8.722;2023-03-14T00:15:44;11.60;99.90
4651;DHT22;2338;49.602;8.722;2023-03-14T00:18:30;11.60;99.90
4651;DHT22;2338;49.602;8.722;2023-03-14T00:21:17;11.70;99.90
4651;DHT22;2338;49.602;8.722;2023-03-14T00:24:03;11.80;99.90
4651;DHT22;2338;49.602;8.722;2023-03-14T00:26:49;11.70;99.90
4651;DHT22;2338;49.602;8.722;2023-03-14T00:29:36;11.70;99.90
4651;DHT22;2338;49.602;8.722;2023-03-14T00:32:21;11.70;99.90
4651;DHT22;2338;49.602;8.722;2023-03-14T00:35:08;11.70;99.90
4651;DHT22;2338;49.602;8.722;2023-03-14T00:37:53;11.70;99.90
4651;DHT22;2338;49.602;8.722;2023-03-14T00:40:39;11.70;99.90
4651;DHT22;2338;49.602;8.722;2023-03-14T00:43:25;11.70;99.90
4651;DHT22;2338;49.602;8.722;2023-03-14T00:46:12;11.70;99.90
4651;DHT22;2338;49.602;8.722;2023-03-14T00:48:58;11.70;99.90
4651;DHT22;2338;49.602;8.722;2023-03-14T00:51:44;11.70;99.90
4651;DHT22;2338;49.602;8.722;2023-03-14T00:54:30;11.60;99.90
4651;DHT22;2338;49.602;8.722;2023-03-14T00:57:16;11.60;99.90
4651;DHT22;2338;49.602;8.722;2023-03-14T01:00:01;11.60;99.90
4651;DHT22;2338;49.602;8.722;2023-03-14T01:02:51;11.60;99.90
4651;DHT22;2338;49.602;8.722;2023-03-14T01:05:37;11.60;99.90
4651;DHT22;2338;49.602;8.722;2023-03-14T01:08:23;11.60;99.90
4651;DHT22;2338;49.602;8.722;2023-03-14T01:11:10;11.50;99.90
4651;DHT22;2338;49.602;8.722;2023-03-14T01:13:56;11.60;99.90
4651;DHT22;2338;49.602;8.722;2023-03-14T01:16:42;11.60;99.90
4651;DHT22;2338;49.602;8.722;2023-03-14T01:19:29;11.70;99.90
4651;DHT22;2338;49.602;8.722;2023-03-14T01:22:16;11.70;99.90
4651;DHT22;2338;49.602;8.722;2023-03-14T01:25:02;11.80;99.90
4651;DHT22;2338;49.602;8.722;2023-03-14T01:27:48;11.70;99.90
4651;DHT22;2338;49.602;8.722;2023-03-14T01:30:34;11.70;99.90
4651;DHT22;2338;49.602;8.722;2023-03-14T01:33:20;11.70;99.90
4651;DHT22;2338;49.602;8.722;2023-03-14T01:36:08;11.70;99.90
4651;DHT22;2338;49.602;8.722;2023-03-14T01:38:55;11.80;99.90
4651;DHT22;2338;49.602;8.722;2023-03-14T01:41:40;11.80;99.90
4651;DHT22;2338;49.602;8.722;2023-03-14T01:44:26;11.80;99.90
4651;DHT22;2338;49.602;8.722;2023-03-14T01:47:12;11.80;99.90
4651;DHT22;2338;49.602;8.722;2023-03-14T01:50:00;11.70;99.90
4651;DHT22;2338;49.602;8.722;2023-03-14T01:52:50;11.80;99.90
4651;DHT22;2338;49.602;8.722;2023-03-14T01:55:36;11.80;99.90
4651;DHT22;2338;49.602;8.722;2023-03-14T01:58:23;11.70;99.90
4651;DHT22;2338;49.602;8.722;2023-03-14T02:01:11;11.70;99.90
4651;DHT22;2338;49.602;8.722;2023-03-14T02:03:59;11.70;99.90
4651;DHT22;2338;49.602;8.722;2023-03-14T02:06:51;11.60;99.90
4651;DHT22;2338;49.602;8.722;2023-03-14T02:09:40;11.60;99.90
4651;DHT22;2338;49.602;8.722;2023-03-14T02:12:27;11.70;99.90
4651;DHT22;2338;49.602;8.722;2023-03-14T02:15:13;11.60;99.90
4651;DHT22;2338;49.602;8.722;2023-03-14T02:18:00;11.70;99.90
4651;DHT22;2338;49.602;8.722;2023-03-14T02:20:52;11.70;99.90
4651;DHT22;2338;49.602;8.722;2023-03-14T02:23:43;11.60;99.90
4651;DHT22;2338;49.602;8.722;2023-03-14T02:26:36;11.60;99.90
4651;DHT22;2338;49.602;8.722;2023-03-14T02:29:25;11.60;99.90
4651;DHT22;2338;49.602;8.722;2023-03-14T02:32:11;11.60;99.90
4651;DHT22;2338;49.602;8.722;2023-03-14T02:34:59;11.60;99.90
4651;DHT22;2338;49.602;8.722;2023-03-14T02:37:49;11.60;99.90
4651;DHT22;2338;49.602;8.722;2023-03-14T02:40:37;11.70;99.90
4651;DHT22;2338;49.602;8.722;2023-03-14T02:43:23;11.70;99.90
4651;DHT22;2338;49.602;8.722;2023-03-14T02:46:11;11.70;99.90
4651;DHT22;2338;49.602;8.722;2023-03-14T02:49:03;11.70;99.90
4651;DHT22;2338;49.602;8.722;2023-03-14T02:51:49;11.60;99.90
4651;DHT22;2338;49.602;8.722;2023-03-14T02:54:35;11.60;99.90
4651;DHT22;2338;49.602;8.722;2023-03-14T02:57:21;11.60;99.90
4651;DHT22;2338;49.602;8.722;2023-03-14T03:00:08;11.50;99.90
4651;DHT22;2338;49.602;8.722;2023-03-14T03:02:55;11.50;99.90
4651;DHT22;2338;49.602;8.722;2023-03-14T03:05:41;11.50;99.90
4651;DHT22;2338;49.602;8.722;2023-03-14T03:08:27;11.50;99.90
4651;DHT22;2338;49.602;8.722;2023-03-14T03:11:13;11.50;99.90
4651;DHT22;2338;49.602;8.722;2023-03-14T03:13:59;11.40;99.90
4651;DHT22;2338;49.602;8.722;2023-03-14T03:16:44;11.50;99.90
4651;DHT22;2338;49.602;8.722;2023-03-14T03:19:32;11.40;99.90
4651;DHT22;2338;49.602;8.722;2023-03-14T03:22:18;11.40;99.90
4651;DHT22;2338;49.602;8.722;2023-03-14T03:25:05;11.40;99.90
4651;DHT22;2338;49.602;8.722;2023-03-14T03:27:51;11.40;99.90
4651;DHT22;2338;49.602;8.722;2023-03-14T03:30:38;11.30;99.90
4651;DHT22;2338;49.602;8.722;2023-03-14T03:33:23;11.30;99.90
4651;DHT22;2338;49.602;8.722;2023-03-14T03:36:11;11.30;99.90
4651;DHT22;2338;49.602;8.722;2023-03-14T03:38:57;11.30;99.90
4651;DHT22;2338;49.602;8.722;2023-03-14T03:41:42;11.30;99.90
4651;DHT22;2338;49.602;8.722;2023-03-14T03:44:28;11.20;99.90
4651;DHT22;2338;49.602;8.722;2023-03-14T03:47:14;11.20;99.90
4651;DHT22;2338;49.602;8.722;2023-03-14T03:50:00;11.20;99.90
4651;DHT22;2338;49.602;8.722;2023-03-14T03:52:47;11.20;99.90
4651;DHT22;2338;49.602;8.722;2023-03-14T03:55:33;11.20;99.90
4651;DHT22;2338;49.602;8.722;2023-03-14T03:58:18;11.20;99.90
4651;DHT22;2338;49.602;8.722;2023-03-14T04:01:05;11.10;99.90
4651;DHT22;2338;49.602;8.722;2023-03-14T04:03:51;11.10;99.90
4651;DHT22;2338;49.602;8.722;2023-03-14T04:06:37;11.10;99.90
4651;DHT22;2338;49.602;8.722;2023-03-14T04:09:24;11.10;99.90
4651;DHT22;2338;49.602;8.722;2023-03-14T04:12:09;11.20;99.90
4651;DHT22;2338;49.602;8.722;2023-03-14T04:14:55;11.20;99.90
4651;DHT22;2338;49.602;8.722;2023-03-14T04:17:41;11.20;99.90
4651;DHT22;2338;49.602;8.722;2023-03-14T04:20:26;11.10;99.90
4651;DHT22;2338;49.602;8.722;2023-03-14T04:23:12;11.20;99.90
4651;DHT22;2338;49.602;8.722;2023-03-14T04:25:59;11.20;99.90
4651;DHT22;2338;49.602;8.722;2023-03-14T04:28:45;11.20;99.90
4651;DHT22;2338;49.602;8.722;2023-03-14T04:31:31;11.20;99.90
4651;DHT22;2338;49.602;8.722;2023-03-14T04:34:16;11.30;99.90
4651;DHT22;2338;49.602;8.722;2023-03-14T04:37:02;11.20;99.90
4651;DHT22;2338;49.602;8.722;2023-03-14T04:39:47;11.30;99.90
4651;DHT22;2338;49.602;8.722;2023-03-14T04:42:35;11.40;99.90
4651;DHT22;2338;49.602;8.722;2023-03-14T04:45:20;11.40;99.90
4651;DHT22;2338;49.602;8.722;2023-03-14T04:48:06;11.30;99.90
4651;DHT22;2338;49.602;8.722;2023-03-14T04:50:52;11.30;99.90
4651;DHT22;2338;49.602;8.722;2023-03-14T04:53:38;11.40;99.90
4651;DHT22;2338;49.602;8.722;2023-03-14T04:56:24;11.40;99.90
4651;DHT22;2338;49.602;8.722;2023-03-14T04:59:10;11.50;99.90
4651;DHT22;2338;49.602;8.722;2023-03-14T05:01:56;11.40;99.90
4651;DHT22;2338;49.602;8.722;2023-03-14T05:04:42;11.40;99.90
4651;DHT22;2338;49.602;8.722;2023-03-14T05:07:27;11.50;99.90
4651;DHT22;2338;49.602;8.722;2023-03-14T05:10:13;11.40;99.90
4651;DHT22;2338;49.602;8.722;2023-03-14T05:12:58;11.40;99.90
4651;DHT22;2338;49.602;8.722;2023-03-14T05:15:46;11.40;99.90
4651;DHT22;2338;49.602;8.722;2023-03-14T05:18:31;11.40;99.90
4651;DHT22;2338;49.602;8.722;2023-03-14T05:21:17;11.40;99.90
4651;DHT22;2338;49.602;8.722;2023-03-14T05:24:03;11.40;99.90
4651;DHT22;2338;49.602;8.722;2023-03-14T05:26:48;11.30;99.90
4651;DHT22;2338;49.602;8.722;2023-03-14T05:29:35;11.30;99.90
4651;DHT22;2338;49.602;8.722;2023-03-14T05:32:22;11.30;99.90
4651;DHT22;2338;49.602;8.722;2023-03-14T05:35:08;11.40;99.90
4651;DHT22;2338;49.602;8.722;2023-03-14T05:37:54;11.30;99.90
4651;DHT22;2338;49.602;8.722;2023-03-14T05:40:39;11.30;99.90
4651;DHT22;2338;49.602;8.722;2023-03-14T05:43:25;11.30;99.90
4651;DHT22;2338;49.602;8.722;2023-03-14T05:46:11;11.30;99.90
4651;DHT22;2338;49.602;8.722;2023-03-14T05:48:58;11.30;99.90
4651;DHT22;2338;49.602;8.722;2023-03-14T05:51:44;11.30;99.90
4651;DHT22;2338;49.602;8.722;2023-03-14T05:54:30;11.20;99.90
4651;DHT22;2338;49.602;8.722;2023-03-14T05:57:15;11.20;99.90
4651;DHT22;2338;49.602;8.722;2023-03-14T06:00:01;11.30;99.90
4651;DHT22;2338;49.602;8.722;2023-03-14T06:02:47;11.30;99.90
4651;DHT22;2338;49.602;8.722;2023-03-14T06:05:34;11.30;99.90
4651;DHT22;2338;49.602;8.722;2023-03-14T06:08:20;11.20;99.90
4651;DHT22;2338;49.602;8.722;2023-03-14T06:11:06;11.30;99.90
4651;DHT22;2338;49.602;8.722;2023-03-14T06:13:51;11.30;99.90
4651;DHT22;2338;49.602;8.722;2023-03-14T06:16:37;11.30;99.90
4651;DHT22;2338;49.602;8.722;2023-03-14T06:19:22;11.30;99.90
4651;DHT22;2338;49.602;8.722;2023-03-14T06:22:10;11.30;99.90
4651;DHT22;2338;49.602;8.722;2023-03-14T06:24:55;11.30;99.90
4651;DHT22;2338;49.602;8.722;2023-03-14T06:27:41;11.30;99.90
4651;DHT22;2338;49.602;8.722;2023-03-14T06:30:27;11.30;99.90
4651;DHT22;2338;49.602;8.722;2023-03-14T06:33:12;11.20;99.90
4651;DHT22;2338;49.602;8.722;2023-03-14T06:35:58;11.30;99.90
4651;DHT22;2338;49.602;8.722;2023-03-14T06:38:45;11.30;99.90
4651;DHT22;2338;49.602;8.722;2023-03-14T06:41:31;11.40;99.90
4651;DHT22;2338;49.602;8.722;2023-03-14T06:44:16;11.40;99.90
4651;DHT22;2338;49.602;8.722;2023-03-14T06:47:02;11.30;99.90
4651;DHT22;2338;49.602;8.722;2023-03-14T06:49:48;11.40;99.90
4651;DHT22;2338;49.602;8.722;2023-03-14T06:52:34;11.30;99.90
4651;DHT22;2338;49.602;8.722;2023-03-14T06:55:20;11.40;99.90
4651;DHT22;2338;49.602;8.722;2023-03-14T06:58:06;11.40;99.90
4651;DHT22;2338;49.602;8.722;2023-03-14T07:00:52;11.40;99.90
4651;DHT22;2338;49.602;8.722;2023-03-14T07:03:39;11.30;99.90
4651;DHT22;2338;49.602;8.722;2023-03-14T07:06:25;11.30;99.90
4651;DHT22;2338;49.602;8.722;2023-03-14T07:09:10;11.30;99.90
4651;DHT22;2338;49.602;8.722;2023-03-14T07:11:57;11.20;99.90
4651;DHT22;2338;49.602;8.722;2023-03-14T07:14:42;11.20;99.90
4651;DHT22;2338;49.602;8.722;2023-03-14T07:17:28;11.30;99.90
4651;DHT22;2338;49.602;8.722;2023-03-14T07:20:14;11.30;99.90
4651;DHT22;2338;49.602;8.722;2023-03-14T07:23:00;11.20;99.90
4651;DHT22;2338;49.602;8.722;2023-03-14T07:25:47;11.20;99.90
4651;DHT22;2338;49.602;8.722;2023-03-14T07:28:34;11.10;99.90
4651;DHT22;2338;49.602;8.722;2023-03-14T07:31:19;11.10;99.90
4651;DHT22;2338;49.602;8.722;2023-03-14T07:34:05;11.20;99.90
4651;DHT22;2338;49.602;8.722;2023-03-14T07:36:51;11.10;99.90
4651;DHT22;2338;49.602;8.722;2023-03-14T07:39:36;11.20;99.90
4651;DHT22;2338;49.602;8.722;2023-03-14T07:42:22;11.30;99.90
4651;DHT22;2338;49.602;8.722;2023-03-14T07:45:10;11.30;99.90
4651;DHT22;2338;49.602;8.722;2023-03-14T07:47:55;11.40;99.90
4651;DHT22;2338;49.602;8.722;2023-03-14T07:50:41;11.40;99.90
4651;DHT22;2338;49.602;8.722;2023-03-14T07:53:27;11.40;99.90
4651;DHT22;2338;49.602;8.722;2023-03-14T07:56:13;11.40;99.90
4651;DHT22;2338;49.602;8.722;2023-03-14T07:58:58;11.40;99.90
4651;DHT22;2338;49.602;8.722;2023-03-14T08:01:45;11.40;99.90
4651;DHT22;2338;49.602;8.722;2023-03-14T08:04:32;11.40;99.90
4651;DHT22;2338;49.602;8.722;2023-03-14T08:07:18;11.40;99.90
4651;DHT22;2338;49.602;8.722;2023-03-14T08:10:05;11.40;99.90
4651;DHT22;2338;49.602;8.722;2023-03-14T08:12:51;11.40;99.90
4651;DHT22;2338;49.602;8.722;2023-03-14T08:15:38;11.30;99.90
4651;DHT22;2338;49.602;8.722;2023-03-14T08:18:25;11.30;99.90
4651;DHT22;2338;49.602;8.722;2023-03-14T08:21:12;11.40;99.90
4651;DHT22;2338;49.602;8.722;2023-03-14T08:23:57;11.40;99.90
4651;DHT22;2338;49.602;8.722;2023-03-14T08:26:43;11.50;99.90
4651;DHT22;2338;49.602;8.722;2023-03-14T08:29:28;11.40;99.90
4651;DHT22;2338;49.602;8.722;2023-03-14T08:32:14;11.50;99.90
4651;DHT22;2338;49.602;8.722;2023-03-14T08:35:01;11.50;99.90
4651;DHT22;2338;49.602;8.722;2023-03-14T08:37:47;11.40;99.90
4651;DHT22;2338;49.602;8.722;2023-03-14T08:40:33;11.50;99.90
4651;DHT22;2338;49.602;8.722;2023-03-14T08:43:18;11.40;99.90
4651;DHT22;2338;49.602;8.722;2023-03-14T08:46:04;11.50;99.90
4651;DHT22;2338;49.602;8.722;2023-03-14T08:48:50;11.40;99.90
4651;DHT22;2338;49.602;8.722;2023-03-14T08:51:37;11.50;99.90
4651;DHT22;2338;49.602;8.722;2023-03-14T08:54:22;11.50;99.90
4651;DHT22;2338;49.602;8.722;2023-03-14T08:57:08;11.60;99.90
4651;DHT22;2338;49.602;8.722;2023-03-14T08:59:54;11.70;99.90
4651;DHT22;2338;49.602;8.722;2023-03-14T09:02:40;11.70;99.90
4651;DHT22;2338;49.602;8.722;2023-03-14T09:05:27;11.80;99.90
4651;DHT22;2338;49.602;8.722;2023-03-14T09:08:13;11.80;99.90
4651;DHT22;2338;49.602;8.722;2023-03-14T09:10:59;11.90;99.90
4651;DHT22;2338;49.602;8.722;2023-03-14T09:13:45;11.90;99.90
4651;DHT22;2338;49.602;8.722;2023-03-14T09:16:31;12.00;99.90
4651;DHT22;2338;49.602;8.722;2023-03-14T09:19:18;11.90;99.90
4651;DHT22;2338;49.602;8.722;2023-03-14T09:22:03;11.90;99.90
4651;DHT22;2338;49.602;8.722;2023-03-14T09:24:50;11.90;99.90
4651;DHT22;2338;49.602;8.722;2023-03-14T09:27:36;11.90;99.90
4651;DHT22;2338;49.602;8.722;2023-03-14T09:30:21;11.90;99.90
4651;DHT22;2338;49.602;8.722;2023-03-14T09:33:07;11.90;99.90
4651;DHT22;2338;49.602;8.722;2023-03-14T09:35:53;11.80;99.90
4651;DHT22;2338;49.602;8.722;2023-03-14T09:38:38;11.80;99.90
4651;DHT22;2338;49.602;8.722;2023-03-14T09:41:27;11.80;99.90
4651;DHT22;2338;49.602;8.722;2023-03-14T09:44:16;11.80;99.90
4651;DHT22;2338;49.602;8.722;2023-03-14T09:47:06;11.80;99.90
4651;DHT22;2338;49.602;8.722;2023-03-14T09:49:52;11.80;99.90
4651;DHT22;2338;49.602;8.722;2023-03-14T09:52:38;11.70;99.90
4651;DHT22;2338;49.602;8.722;2023-03-14T09:55:26;11.80;99.90
4651;DHT22;2338;49.602;8.722;2023-03-14T09:58:16;11.80;99.90
4651;DHT22;2338;49.602;8.722;2023-03-14T10:01:02;11.90;99.90
4651;DHT22;2338;49.602;8.722;2023-03-14T10:03:47;11.90;99.90
4651;DHT22;2338;49.602;8.722;2023-03-14T10:06:34;11.90;99.90
4651;DHT22;2338;49.602;8.722;2023-03-14T10:09:21;12.00;99.90
4651;DHT22;2338;49.602;8.722;2023-03-14T10:12:10;12.00;99.90
4651;DHT22;2338;49.602;8.722;2023-03-14T10:14:57;12.00;99.90
4651;DHT22;2338;49.602;8.722;2023-03-14T10:17:48;11.90;99.90
4651;DHT22;2338;49.602;8.722;2023-03-14T10:20:36;11.90;99.90
4651;DHT22;2338;49.602;8.722;2023-03-14T10:23:27;11.80;99.90
4651;DHT22;2338;49.602;8.722;2023-03-14T10:26:15;11.70;99.90
4651;DHT22;2338;49.602;8.722;2023-03-14T10:29:02;11.70;99.90
4651;DHT22;2338;49.602;8.722;2023-03-14T10:31:56;11.70;99.90
4651;DHT22;2338;49.602;8.722;2023-03-14T10:34:42;11.70;99.90
4651;DHT22;2338;49.602;8.722;2023-03-14T10:37:28;11.70;99.90
4651;DHT22;2338;49.602;8.722;2023-03-14T10:40:14;11.70;99.90
4651;DHT22;2338;49.602;8.722;2023-03-14T10:43:00;11.60;99.90
4651;DHT22;2338;49.602;8.722;2023-03-14T10:45:52;11.60;99.90
4651;DHT22;2338;49.602;8.722;2023-03-14T10:48:43;11.50;99.90
4651;DHT22;2338;49.602;8.722;2023-03-14T10:51:30;11.50;99.90
4651;DHT22;2338;49.602;8.722;2023-03-14T10:54:21;11.60;99.90
4651;DHT22;2338;49.602;8.722;2023-03-14T10:57:08;11.50;99.90
4651;DHT22;2338;49.602;8.722;2023-03-14T10:59:55;11.40;99.90
4651;DHT22;2338;49.602;8.722;2023-03-14T11:02:49;11.40;99.90
4651;DHT22;2338;49.602;8.722;2023-03-14T11:05:42;11.40;99.90
4651;DHT22;2338;49.602;8.722;2023-03-14T11:08:33;11.40;99.90
4651;DHT22;2338;49.602;8.722;2023-03-14T11:11:23;11.30;99.90
4651;DHT22;2338;49.602;8.722;2023-03-14T11:14:18;11.30;99.90
4651;DHT22;2338;49.602;8.722;2023-03-14T11:17:14;11.30;99.90
4651;DHT22;2338;49.602;8.722;2023-03-14T11:20:17;11.20;99.90
4651;DHT22;2338;49.602;8.722;2023-03-14T11:23:13;11.10;99.90
4651;DHT22;2338;49.602;8.722;2023-03-14T11:26:06;11.10;99.90
4651;DHT22;2338;49.602;8.722;2023-03-14T11:28:58;11.00;99.90
4651;DHT22;2338;49.602;8.722;2023-03-14T11:31:47;11.00;99.90
4651;DHT22;2338;49.602;8.722;2023-03-14T11:34:38;11.00;99.90
4651;DHT22;2338;49.602;8.722;2023-03-14T11:37:27;11.00;99.90
4651;DHT22;2338;49.602;8.722;2023-03-14T11:40:18;10.90;99.90
4651;DHT22;2338;49.602;8.722;2023-03-14T11:43:11;10.90;99.90
4651;DHT22;2338;49.602;8.722;2023-03-14T11:46:04;11.00;99.90
4651;DHT22;2338;49.602;8.722;2023-03-14T11:49:00;11.10;99.90
4651;DHT22;2338;49.602;8.722;2023-03-14T11:51:50;10.90;99.90
4651;DHT22;2338;49.602;8.722;2023-03-14T11:54:41;10.90;99.90
4651;DHT22;2338;49.602;8.722;2023-03-14T11:57:31;10.90;99.90
4651;DHT22;2338;49.602;8.722;2023-03-14T12:00:18;10.90;99.90
4651;DHT22;2338;49.602;8.722;2023-03-14T12:03:11;10.80;99.90
4651;DHT22;2338;49.602;8.722;2023-03-14T12:06:05;10.80;99.90
4651;DHT22;2338;49.602;8.722;2023-03-14T12:08:53;10.70;99.90
4651;DHT22;2338;49.602;8.722;2023-03-14T12:11:43;10.70;99.90
4651;DHT22;2338;49.602;8.722;2023-03-14T12:14:34;10.80;99.90
4651;DHT22;2338;49.602;8.722;2023-03-14T12:17:23;10.80;99.90
4651;DHT22;2338;49.602;8.722;2023-03-14T12:20:16;10.90;99.90
4651;DHT22;2338;49.602;8.722;2023-03-14T12:23:04;10.80;99.90
4651;DHT22;2338;49.602;8.722;2023-03-14T12:26:07;10.80;99.90
4651;DHT22;2338;49.602;8.722;2023-03-14T12:29:14;10.70;99.90
4651;DHT22;2338;49.602;8.722;2023-03-14T12:32:22;10.70;99.90
4651;DHT22;2338;49.602;8.722;2023-03-14T12:35:34;10.60;99.90
4651;DHT22;2338;49.602;8.722;2023-03-14T12:38:25;10.50;99.90
4651;DHT22;2338;49.602;8.722;2023-03-14T12:41:17;10.50;99.90
4651;DHT22;2338;49.602;8.722;2023-03-14T12:44:46;10.40;99.90
4651;DHT22;2338;49.602;8.722;2023-03-14T12:47:51;10.40;99.90
4651;DHT22;2338;49.602;8.722;2023-03-14T12:50:43;10.30;99.90
4651;DHT22;2338;49.602;8.722;2023-03-14T12:53:55;10.40;99.90
4651;DHT22;2338;49.602;8.722;2023-03-14T12:56:56;10.40;99.90
4651;DHT22;2338;49.602;8.722;2023-03-14T12:59:50;10.40;99.90
4651;DHT22;2338;49.602;8.722;2023-03-14T13:02:38;10.40;99.90
4651;DHT22;2338;49.602;8.722;2023-03-14T13:05:26;10.40;99.90
4651;DHT22;2338;49.602;8.722;2023-03-14T13:08:12;10.40;99.90
4651;DHT22;2338;49.602;8.722;2023-03-14T13:10:58;10.40;99.90
4651;DHT22;2338;49.602;8.722;2023-03-14T13:13:46;10.30;99.90
4651;DHT22;2338;49.602;8.722;2023-03-14T13:16:36;10.30;99.90
4651;DHT22;2338;49.602;8.722;2023-03-14T13:19:24;10.30;99.90
4651;DHT22;2338;49.602;8.722;2023-03-14T13:22:19;10.30;99.90
4651;DHT22;2338;49.602;8.722;2023-03-14T13:25:09;10.30;99.90
4651;DHT22;2338;49.602;8.722;2023-03-14T13:27:56;10.30;99.90
4651;DHT22;2338;49.602;8.722;2023-03-14T13:30:43;10.30;99.90
4651;DHT22;2338;49.602;8.722;2023-03-14T13:33:30;10.30;99.90
4651;DHT22;2338;49.602;8.722;2023-03-14T13:36:22;10.30;99.90
4651;DHT22;2338;49.602;8.722;2023-03-14T13:39:13;10.30;99.90
4651;DHT22;2338;49.602;8.722;2023-03-14T13:42:00;10.30;99.90
4651;DHT22;2338;49.602;8.722;2023-03-14T13:44:46;10.30;99.90
4651;DHT22;2338;49.602;8.722;2023-03-14T13:47:32;10.30;99.90
4651;DHT22;2338;49.602;8.722;2023-03-14T13:50:18;10.20;99.90
4651;DHT22;2338;49.602;8.722;2023-03-14T13:53:04;10.20;99.90
4651;DHT22;2338;49.602;8.722;2023-03-14T13:55:52;10.10;99.90
4651;DHT22;2338;49.602;8.722;2023-03-14T13:58:38;10.10;99.90
4651;DHT22;2338;49.602;8.722;2023-03-14T14:01:27;10.00;99.90
4651;DHT22;2338;49.602;8.722;2023-03-14T14:04:17;10.00;99.90
4651;DHT22;2338;49.602;8.722;2023-03-14T14:07:07;9.70;99.90
4651;DHT22;2338;49.602;8.722;2023-03-14T14:09:57;9.50;99.90
4651;DHT22;2338;49.602;8.722;2023-03-14T14:12:48;9.30;99.90
4651;DHT22;2338;49.602;8.722;2023-03-14T14:15:39;9.20;99.90
4651;DHT22;2338;49.602;8.722;2023-03-14T14:18:28;9.20;99.90
4651;DHT22;2338;49.602;8.722;2023-03-14T14:21:14;9.10;99.90
4651;DHT22;2338;49.602;8.722;2023-03-14T14:24:00;9.10;99.90
4651;DHT22;2338;49.602;8.722;2023-03-14T14:26:47;9.20;99.90
4651;DHT22;2338;49.602;8.722;2023-03-14T14:29:36;9.40;99.90
4651;DHT22;2338;49.602;8.722;2023-03-14T14:32:23;9.90;99.90
4651;DHT22;2338;49.602;8.722;2023-03-14T14:35:17;10.10;99.90
4651;DHT22;2338;49.602;8.722;2023-03-14T14:38:12;10.20;99.90
4651;DHT22;2338;49.602;8.722;2023-03-14T14:41:02;10.10;99.90
4651;DHT22;2338;49.602;8.722;2023-03-14T14:43:48;10.10;99.90
4651;DHT22;2338;49.602;8.722;2023-03-14T14:46:38;10.10;99.90
4651;DHT22;2338;49.602;8.722;2023-03-14T14:49:29;10.10;99.90
4651;DHT22;2338;49.602;8.722;2023-03-14T14:52:17;10.00;99.90
4651;DHT22;2338;49.602;8.722;2023-03-14T14:55:10;10.00;99.90
4651;DHT22;2338;49.602;8.722;2023-03-14T14:57:56;10.00;99.90
4651;DHT22;2338;49.602;8.722;2023-03-14T15:00:51;10.10;99.90
4651;DHT22;2338;49.602;8.722;2023-03-14T15:03:42;10.10;99.90
4651;DHT22;2338;49.602;8.722;2023-03-14T15:06:29;10.00;91.30
4651;DHT22;2338;49.602;8.722;2023-03-14T15:09:15;10.00;93.30
4651;DHT22;2338;49.602;8.722;2023-03-14T15:12:01;9.90;89.00
4651;DHT22;2338;49.602;8.722;2023-03-14T15:14:47;9.90;85.50
4651;DHT22;2338;49.602;8.722;2023-03-14T15:17:33;10.00;75.10
4651;DHT22;2338;49.602;8.722;2023-03-14T15:20:20;10.00;77.40
4651;DHT22;2338;49.602;8.722;2023-03-14T15:23:12;10.10;73.30
4651;DHT22;2338;49.602;8.722;2023-03-14T15:25:58;10.10;70.40
4651;DHT22;2338;49.602;8.722;2023-03-14T15:28:43;10.20;67.50
4651;DHT22;2338;49.602;8.722;2023-03-14T15:31:29;10.20;63.40
4651;DHT22;2338;49.602;8.722;2023-03-14T15:34:15;10.20;63.10
4651;DHT22;2338;49.602;8.722;2023-03-14T15:37:02;10.10;65.20
4651;DHT22;2338;49.602;8.722;2023-03-14T15:39:51;10.10;64.20
4651;DHT22;2338;49.602;8.722;2023-03-14T15:42:36;10.00;60.50
4651;DHT22;2338;49.602;8.722;2023-03-14T15:45:22;10.10;61.20
4651;DHT22;2338;49.602;8.722;2023-03-14T15:48:13;10.00;58.80
4651;DHT22;2338;49.602;8.722;2023-03-14T15:50:59;10.00;56.40
4651;DHT22;2338;49.602;8.722;2023-03-14T15:53:47;10.00;52.20
4651;DHT22;2338;49.602;8.722;2023-03-14T15:56:32;10.00;48.50
4651;DHT22;2338;49.602;8.722;2023-03-14T15:59:18;10.00;49.90
4651;DHT22;2338;49.602;8.722;2023-03-14T16:02:04;10.00;46.70
4651;DHT22;2338;49.602;8.722;2023-03-14T16:04:49;10.10;49.40
4651;DHT22;2338;49.602;8.722;2023-03-14T16:07:35;10.10;44.80
4651;DHT22;2338;49.602;8.722;2023-03-14T16:10:22;10.30;44.50
4651;DHT22;2338;49.602;8.722;2023-03-14T16:13:08;10.50;45.80
4651;DHT22;2338;49.602;8.722;2023-03-14T16:15:55;10.70;48.00
4651;DHT22;2338;49.602;8.722;2023-03-14T16:18:41;10.90;47.30
4651;DHT22;2338;49.602;8.722;2023-03-14T16:21:27;10.90;45.30
4651;DHT22;2338;49.602;8.722;2023-03-14T16:24:13;10.90;44.50
4651;DHT22;2338;49.602;8.722;2023-03-14T16:26:59;10.80;45.00
4651;DHT22;2338;49.602;8.722;2023-03-14T16:29:45;10.80;44.10
4651;DHT22;2338;49.602;8.722;2023-03-14T16:32:31;10.70;44.80
4651;DHT22;2338;49.602;8.722;2023-03-14T16:35:17;10.60;45.00
4651;DHT22;2338;49.602;8.722;2023-03-14T16:38:03;10.50;46.30
4651;DHT22;2338;49.602;8.722;2023-03-14T16:40:56;10.60;48.20
4651;DHT22;2338;49.602;8.722;2023-03-14T16:43:44;10.60;47.50
4651;DHT22;2338;49.602;8.722;2023-03-14T16:46:30;10.60;47.30
4651;DHT22;2338;49.602;8.722;2023-03-14T16:49:15;10.60;49.80
4651;DHT22;2338;49.602;8.722;2023-03-14T16:52:01;10.50;50.60
4651;DHT22;2338;49.602;8.722;2023-03-14T16:54:47;10.40;53.70
4651;DHT22;2338;49.602;8.722;2023-03-14T16:57:33;10.40;55.20
4651;DHT22;2338;49.602;8.722;2023-03-14T17:00:21;10.40;56.30
4651;DHT22;2338;49.602;8.722;2023-03-14T17:03:06;10.40;56.30
4651;DHT22;2338;49.602;8.722;2023-03-14T17:05:52;10.40;56.00
4651;DHT22;2338;49.602;8.722;2023-03-14T17:08:38;10.40;56.30
4651;DHT22;2338;49.602;8.722;2023-03-14T17:11:24;10.30;58.30
4651;DHT22;2338;49.602;8.722;2023-03-14T17:14:09;10.30;57.10
4651;DHT22;2338;49.602;8.722;2023-03-14T17:16:56;10.10;57.20
4651;DHT22;2338;49.602;8.722;2023-03-14T17:19:42;10.20;58.90
4651;DHT22;2338;49.602;8.722;2023-03-14T17:22:27;10.10;58.80
4651;DHT22;2338;49.602;8.722;2023-03-14T17:25:13;10.10;60.30
4651;DHT22;2338;49.602;8.722;2023-03-14T17:27:59;10.10;60.80
4651;DHT22;2338;49.602;8.722;2023-03-14T17:30:45;10.20;63.70
4651;DHT22;2338;49.602;8.722;2023-03-14T17:33:32;10.10;61.30
4651;DHT22;2338;49.602;8.722;2023-03-14T17:36:19;10.10;60.70
4651;DHT22;2338;49.602;8.722;2023-03-14T17:39:05;10.10;64.50
4651;DHT22;2338;49.602;8.722;2023-03-14T17:41:52;10.10;66.30
4651;DHT22;2338;49.602;8.722;2023-03-14T17:44:38;10.00;64.50
4651;DHT22;2338;49.602;8.722;2023-03-14T17:47:23;9.90;67.20
4651;DHT22;2338;49.602;8.722;2023-03-14T17:50:11;9.80;67.20
4651;DHT22;2338;49.602;8.722;2023-03-14T17:52:57;9.80;68.50
4651;DHT22;2338;49.602;8.722;2023-03-14T17:55:42;9.80;72.10
4651;DHT22;2338;49.602;8.722;2023-03-14T17:58:29;9.80;72.00
4651;DHT22;2338;49.602;8.722;2023-03-14T18:01:18;9.90;73.10
4651;DHT22;2338;49.602;8.722;2023-03-14T18:04:04;10.00;73.70
4651;DHT22;2338;49.602;8.722;2023-03-14T18:06:51;9.90;76.50
4651;DHT22;2338;49.602;8.722;2023-03-14T18:09:37;9.80;76.50
4651;DHT22;2338;49.602;8.722;2023-03-14T18:12:23;9.80;78.70
4651;DHT22;2338;49.602;8.722;2023-03-14T18:15:09;9.70;81.70